sensor_id;sensor_type;location;lat;lon;timestamp;P1;durP1;ratioP1;P2;durP2;ratioP2
56511;SDS011;42408;53.238;5.686;2023-04-16T00:00:45;46.67;;;18.67;;
56511;SDS011;42408;53.238;5.686;2023-04-16T00:03:12;44.83;;;18.92;;
56511;SDS011;42408;53.238;5.686;2023-04-16T00:05:38;43.50;;;18.53;;
56511;SDS011;42408;53.238;5.686;2023-04-16T00:08:03;42.20;;;17.60;;
56511;SDS011;42408;53.238;5.686;2023-04-16T00:10:29;38.07;;;15.87;;
56511;SDS011;42408;53.238;5.686;2023-04-16T00:12:55;36.53;;;16.20;;
56511;SDS011;42408;53.238;5.686;2023-04-16T00:15:21;33.10;;;16.40;;
56511;SDS011;42408;53.238;5.686;2023-04-16T00:17:47;37.57;;;16.23;;
56511;SDS011;42408;53.238;5.686;2023-04-16T00:20:12;34.90;;;16.73;;
56511;SDS011;42408;53.238;5.686;2023-04-16T00:22:38;36.23;;;18.43;;
56511;SDS011;42408;53.238;5.686;2023-04-16T00:25:04;34.40;;;18.37;;
56511;SDS011;42408;53.238;5.686;2023-04-16T00:27:30;37.73;;;18.30;;
56511;SDS011;42408;53.238;5.686;2023-04-16T00:29:55;38.23;;;17.17;;
56511;SDS011;42408;53.238;5.686;2023-04-16T00:32:21;37.63;;;16.43;;
56511;SDS011;42408;53.238;5.686;2023-04-16T00:34:47;33.77;;;16.83;;
56511;SDS011;42408;53.238;5.686;2023-04-16T00:37:12;36.47;;;17.90;;
56511;SDS011;42408;53.238;5.686;2023-04-16T00:39:38;40.87;;;17.87;;
56511;SDS011;42408;53.238;5.686;2023-04-16T00:42:03;32.83;;;16.70;;
56511;SDS011;42408;53.238;5.686;2023-04-16T00:44:29;34.83;;;17.07;;
56511;SDS011;42408;53.238;5.686;2023-04-16T00:46:55;36.17;;;16.83;;
56511;SDS011;42408;53.238;5.686;2023-04-16T00:49:22;40.47;;;18.38;;
56511;SDS011;42408;53.238;5.686;2023-04-16T00:54:14;38.92;;;18.40;;
56511;SDS011;42408;53.238;5.686;2023-04-16T00:56:39;36.17;;;16.20;;
56511;SDS011;42408;53.238;5.686;2023-04-16T00:59:06;35.63;;;18.23;;
56511;SDS011;42408;53.238;5.686;2023-04-16T01:01:32;30.58;;;16.30;;
56511;SDS011;42408;53.238;5.686;2023-04-16T01:03:58;31.90;;;16.40;;
56511;SDS011;42408;53.238;5.686;2023-04-16T01:06:24;35.63;;;17.57;;
56511;SDS011;42408;53.238;5.686;2023-04-16T01:08:51;32.53;;;16.77;;
56511;SDS011;42408;53.238;5.686;2023-04-16T01:11:16;36.90;;;16.50;;
56511;SDS011;42408;53.238;5.686;2023-04-16T01:13:42;34.80;;;15.87;;
56511;SDS011;42408;53.238;5.686;2023-04-16T01:16:08;31.90;;;17.07;;
56511;SDS011;42408;53.238;5.686;2023-04-16T01:18:36;38.00;;;17.10;;
56511;SDS011;42408;53.238;5.686;2023-04-16T01:21:02;32.97;;;17.85;;
56511;SDS011;42408;53.238;5.686;2023-04-16T01:23:28;35.47;;;17.70;;
56511;SDS011;42408;53.238;5.686;2023-04-16T01:25:54;36.22;;;17.08;;
56511;SDS011;42408;53.238;5.686;2023-04-16T01:28:20;36.27;;;16.37;;
56511;SDS011;42408;53.238;5.686;2023-04-16T01:30:46;37.47;;;17.70;;
56511;SDS011;42408;53.238;5.686;2023-04-16T01:33:12;42.33;;;19.63;;
56511;SDS011;42408;53.238;5.686;2023-04-16T01:38:05;37.53;;;18.05;;
56511;SDS011;42408;53.238;5.686;2023-04-16T01:40:32;39.92;;;19.73;;
56511;SDS011;42408;53.238;5.686;2023-04-16T01:43:01;49.35;;;22.02;;
56511;SDS011;42408;53.238;5.686;2023-04-16T01:45:28;47.03;;;20.95;;
56511;SDS011;42408;53.238;5.686;2023-04-16T01:47:55;46.03;;;22.20;;
56511;SDS011;42408;53.238;5.686;2023-04-16T01:50:20;51.77;;;21.77;;
56511;SDS011;42408;53.238;5.686;2023-04-16T01:52:47;58.15;;;24.52;;
56511;SDS011;42408;53.238;5.686;2023-04-16T01:55:13;55.73;;;25.10;;
56511;SDS011;42408;53.238;5.686;2023-04-16T01:57:38;59.13;;;25.63;;
56511;SDS011;42408;53.238;5.686;2023-04-16T02:00:05;57.73;;;25.23;;
56511;SDS011;42408;53.238;5.686;2023-04-16T02:02:33;56.28;;;23.98;;
56511;SDS011;42408;53.238;5.686;2023-04-16T02:04:59;60.70;;;26.77;;
56511;SDS011;42408;53.238;5.686;2023-04-16T02:07:25;68.60;;;26.25;;
56511;SDS011;42408;53.238;5.686;2023-04-16T02:09:51;67.72;;;26.45;;
56511;SDS011;42408;53.238;5.686;2023-04-16T02:12:17;66.07;;;25.73;;
56511;SDS011;42408;53.238;5.686;2023-04-16T02:14:43;64.22;;;25.83;;
56511;SDS011;42408;53.238;5.686;2023-04-16T02:17:09;62.40;;;25.47;;
56511;SDS011;42408;53.238;5.686;2023-04-16T02:19:35;55.73;;;24.73;;
56511;SDS011;42408;53.238;5.686;2023-04-16T02:22:01;57.90;;;26.00;;
56511;SDS011;42408;53.238;5.686;2023-04-16T02:24:27;59.17;;;26.60;;
56511;SDS011;42408;53.238;5.686;2023-04-16T02:26:53;53.43;;;26.53;;
56511;SDS011;42408;53.238;5.686;2023-04-16T02:29:18;54.78;;;29.10;;
56511;SDS011;42408;53.238;5.686;2023-04-16T02:31:45;66.50;;;29.88;;
56511;SDS011;42408;53.238;5.686;2023-04-16T02:34:11;61.17;;;32.37;;
56511;SDS011;42408;53.238;5.686;2023-04-16T02:36:37;60.55;;;31.60;;
56511;SDS011;42408;53.238;5.686;2023-04-16T02:39:02;70.53;;;32.63;;
56511;SDS011;42408;53.238;5.686;2023-04-16T02:41:29;68.10;;;31.60;;
56511;SDS011;42408;53.238;5.686;2023-04-16T02:43:54;73.63;;;33.37;;
56511;SDS011;42408;53.238;5.686;2023-04-16T02:46:20;63.83;;;30.00;;
56511;SDS011;42408;53.238;5.686;2023-04-16T02:48:46;59.37;;;30.67;;
56511;SDS011;42408;53.238;5.686;2023-04-16T02:51:12;55.47;;;27.07;;
56511;SDS011;42408;53.238;5.686;2023-04-16T02:53:37;56.80;;;29.13;;
56511;SDS011;42408;53.238;5.686;2023-04-16T02:56:03;55.50;;;29.97;;
56511;SDS011;42408;53.238;5.686;2023-04-16T02:58:29;65.18;;;28.48;;
56511;SDS011;42408;53.238;5.686;2023-04-16T03:00:55;61.87;;;30.67;;
56511;SDS011;42408;53.238;5.686;2023-04-16T03:03:20;61.20;;;28.33;;
56511;SDS011;42408;53.238;5.686;2023-04-16T03:05:46;59.20;;;29.37;;
56511;SDS011;42408;53.238;5.686;2023-04-16T03:08:12;53.80;;;29.23;;
56511;SDS011;42408;53.238;5.686;2023-04-16T03:10:38;58.80;;;29.97;;
56511;SDS011;42408;53.238;5.686;2023-04-16T03:13:05;51.78;;;29.13;;
56511;SDS011;42408;53.238;5.686;2023-04-16T03:15:31;51.80;;;27.85;;
56511;SDS011;42408;53.238;5.686;2023-04-16T03:17:57;59.93;;;27.97;;
56511;SDS011;42408;53.238;5.686;2023-04-16T03:20:23;59.80;;;28.25;;
56511;SDS011;42408;53.238;5.686;2023-04-16T03:22:49;59.40;;;27.57;;
56511;SDS011;42408;53.238;5.686;2023-04-16T03:27:42;56.88;;;26.45;;
56511;SDS011;42408;53.238;5.686;2023-04-16T03:30:10;65.20;;;27.60;;
56511;SDS011;42408;53.238;5.686;2023-04-16T03:32:36;67.28;;;28.77;;
56511;SDS011;42408;53.238;5.686;2023-04-16T03:35:02;69.90;;;29.57;;
56511;SDS011;42408;53.238;5.686;2023-04-16T03:37:29;64.50;;;30.63;;
56511;SDS011;42408;53.238;5.686;2023-04-16T03:39:54;69.53;;;32.83;;
56511;SDS011;42408;53.238;5.686;2023-04-16T03:42:20;69.03;;;31.33;;
56511;SDS011;42408;53.238;5.686;2023-04-16T03:44:46;62.07;;;30.90;;
56511;SDS011;42408;53.238;5.686;2023-04-16T03:47:11;75.03;;;30.23;;
56511;SDS011;42408;53.238;5.686;2023-04-16T03:49:37;67.30;;;31.97;;
56511;SDS011;42408;53.238;5.686;2023-04-16T03:52:03;62.00;;;30.53;;
56511;SDS011;42408;53.238;5.686;2023-04-16T03:54:28;62.90;;;29.87;;
56511;SDS011;42408;53.238;5.686;2023-04-16T03:56:54;54.67;;;27.13;;
56511;SDS011;42408;53.238;5.686;2023-04-16T03:59:21;53.22;;;26.30;;
56511;SDS011;42408;53.238;5.686;2023-04-16T04:01:46;52.83;;;26.80;;
56511;SDS011;42408;53.238;5.686;2023-04-16T04:04:12;62.00;;;27.27;;
56511;SDS011;42408;53.238;5.686;2023-04-16T04:06:38;55.63;;;25.57;;
56511;SDS011;42408;53.238;5.686;2023-04-16T04:09:03;52.90;;;26.40;;
56511;SDS011;42408;53.238;5.686;2023-04-16T04:11:29;46.50;;;23.60;;
56511;SDS011;42408;53.238;5.686;2023-04-16T04:13:55;47.37;;;23.63;;
56511;SDS011;42408;53.238;5.686;2023-04-16T04:16:21;59.37;;;24.83;;
56511;SDS011;42408;53.238;5.686;2023-04-16T04:18:46;59.63;;;26.23;;
56511;SDS011;42408;53.238;5.686;2023-04-16T04:21:12;50.87;;;22.03;;
56511;SDS011;42408;53.238;5.686;2023-04-16T04:23:38;57.23;;;21.97;;
56511;SDS011;42408;53.238;5.686;2023-04-16T04:26:05;54.25;;;22.67;;
56511;SDS011;42408;53.238;5.686;2023-04-16T04:28:31;52.83;;;23.50;;
56511;SDS011;42408;53.238;5.686;2023-04-16T04:33:24;46.10;;;22.10;;
56511;SDS011;42408;53.238;5.686;2023-04-16T04:35:50;45.80;;;21.67;;
56511;SDS011;42408;53.238;5.686;2023-04-16T04:38:16;59.72;;;21.52;;
56511;SDS011;42408;53.238;5.686;2023-04-16T04:40:46;54.65;;;22.33;;
56511;SDS011;42408;53.238;5.686;2023-04-16T04:43:12;49.95;;;23.60;;
56511;SDS011;42408;53.238;5.686;2023-04-16T04:45:39;52.97;;;22.43;;
56511;SDS011;42408;53.238;5.686;2023-04-16T04:48:04;48.00;;;20.73;;
56511;SDS011;42408;53.238;5.686;2023-04-16T04:50:30;56.23;;;22.10;;
56511;SDS011;42408;53.238;5.686;2023-04-16T04:52:56;57.43;;;24.37;;
56511;SDS011;42408;53.238;5.686;2023-04-16T04:55:22;69.60;;;24.80;;
56511;SDS011;42408;53.238;5.686;2023-04-16T04:57:48;58.27;;;25.63;;
56511;SDS011;42408;53.238;5.686;2023-04-16T05:00:13;53.97;;;23.73;;
56511;SDS011;42408;53.238;5.686;2023-04-16T05:02:39;56.33;;;22.73;;
56511;SDS011;42408;53.238;5.686;2023-04-16T05:05:05;52.73;;;23.37;;
56511;SDS011;42408;53.238;5.686;2023-04-16T05:07:31;57.90;;;23.57;;
56511;SDS011;42408;53.238;5.686;2023-04-16T05:09:57;52.73;;;23.90;;
56511;SDS011;42408;53.238;5.686;2023-04-16T05:12:22;60.13;;;23.23;;
56511;SDS011;42408;53.238;5.686;2023-04-16T05:14:48;55.17;;;23.33;;
56511;SDS011;42408;53.238;5.686;2023-04-16T05:17:14;56.93;;;22.63;;
56511;SDS011;42408;53.238;5.686;2023-04-16T05:19:39;44.27;;;22.57;;
56511;SDS011;42408;53.238;5.686;2023-04-16T05:22:05;55.77;;;22.80;;
56511;SDS011;42408;53.238;5.686;2023-04-16T05:24:31;53.67;;;22.60;;
56511;SDS011;42408;53.238;5.686;2023-04-16T05:26:56;54.10;;;25.07;;
56511;SDS011;42408;53.238;5.686;2023-04-16T05:29:22;57.90;;;27.93;;
56511;SDS011;42408;53.238;5.686;2023-04-16T05:31:48;53.87;;;26.97;;
56511;SDS011;42408;53.238;5.686;2023-04-16T05:34:13;48.97;;;26.30;;
56511;SDS011;42408;53.238;5.686;2023-04-16T05:36:39;54.03;;;28.07;;
56511;SDS011;42408;53.238;5.686;2023-04-16T05:39:05;64.37;;;30.20;;
56511;SDS011;42408;53.238;5.686;2023-04-16T05:41:32;61.35;;;27.77;;
56511;SDS011;42408;53.238;5.686;2023-04-16T05:43:58;62.25;;;28.20;;
56511;SDS011;42408;53.238;5.686;2023-04-16T05:46:23;61.27;;;25.47;;
56511;SDS011;42408;53.238;5.686;2023-04-16T05:48:49;53.28;;;25.83;;
56511;SDS011;42408;53.238;5.686;2023-04-16T05:51:15;50.77;;;24.60;;
56511;SDS011;42408;53.238;5.686;2023-04-16T05:53:41;59.97;;;23.23;;
56511;SDS011;42408;53.238;5.686;2023-04-16T05:56:06;60.00;;;23.10;;
56511;SDS011;42408;53.238;5.686;2023-04-16T05:58:32;54.37;;;22.90;;
56511;SDS011;42408;53.238;5.686;2023-04-16T06:00:58;58.03;;;24.07;;
56511;SDS011;42408;53.238;5.686;2023-04-16T06:05:50;42.35;;;20.60;;
56511;SDS011;42408;53.238;5.686;2023-04-16T06:08:16;47.47;;;22.30;;
56511;SDS011;42408;53.238;5.686;2023-04-16T06:10:42;50.17;;;23.37;;
56511;SDS011;42408;53.238;5.686;2023-04-16T06:13:09;48.85;;;23.30;;
56511;SDS011;42408;53.238;5.686;2023-04-16T06:15:35;55.17;;;25.00;;
56511;SDS011;42408;53.238;5.686;2023-04-16T06:18:00;49.10;;;23.73;;
56511;SDS011;42408;53.238;5.686;2023-04-16T06:20:26;38.80;;;21.47;;
56511;SDS011;42408;53.238;5.686;2023-04-16T06:22:52;44.77;;;23.00;;
56511;SDS011;42408;53.238;5.686;2023-04-16T06:25:17;40.07;;;20.90;;
56511;SDS011;42408;53.238;5.686;2023-04-16T06:27:43;43.93;;;20.97;;
56511;SDS011;42408;53.238;5.686;2023-04-16T06:30:12;43.43;;;21.67;;
56511;SDS011;42408;53.238;5.686;2023-04-16T06:32:39;48.33;;;22.13;;
56511;SDS011;42408;53.238;5.686;2023-04-16T06:35:06;50.05;;;21.95;;
56511;SDS011;42408;53.238;5.686;2023-04-16T06:37:32;38.17;;;21.60;;
56511;SDS011;42408;53.238;5.686;2023-04-16T06:39:58;45.60;;;21.07;;
56511;SDS011;42408;53.238;5.686;2023-04-16T06:42:23;40.03;;;17.93;;
56511;SDS011;42408;53.238;5.686;2023-04-16T06:44:49;41.10;;;19.73;;
56511;SDS011;42408;53.238;5.686;2023-04-16T06:47:15;39.80;;;19.77;;
56511;SDS011;42408;53.238;5.686;2023-04-16T06:49:40;41.10;;;18.37;;
56511;SDS011;42408;53.238;5.686;2023-04-16T06:52:06;41.63;;;19.83;;
56511;SDS011;42408;53.238;5.686;2023-04-16T06:54:32;35.50;;;17.67;;
56511;SDS011;42408;53.238;5.686;2023-04-16T06:56:58;30.47;;;16.37;;
56511;SDS011;42408;53.238;5.686;2023-04-16T06:59:23;31.67;;;16.40;;
56511;SDS011;42408;53.238;5.686;2023-04-16T07:01:50;47.20;;;19.83;;
56511;SDS011;42408;53.238;5.686;2023-04-16T07:04:16;37.40;;;17.45;;
56511;SDS011;42408;53.238;5.686;2023-04-16T07:06:42;43.77;;;18.03;;
56511;SDS011;42408;53.238;5.686;2023-04-16T07:09:07;34.50;;;18.77;;
56511;SDS011;42408;53.238;5.686;2023-04-16T07:11:33;42.80;;;18.77;;
56511;SDS011;42408;53.238;5.686;2023-04-16T07:13:59;44.00;;;18.65;;
56511;SDS011;42408;53.238;5.686;2023-04-16T07:16:25;38.77;;;21.20;;
56511;SDS011;42408;53.238;5.686;2023-04-16T07:18:51;47.27;;;18.67;;
56511;SDS011;42408;53.238;5.686;2023-04-16T07:21:16;44.57;;;18.37;;
56511;SDS011;42408;53.238;5.686;2023-04-16T07:23:42;46.13;;;18.93;;
56511;SDS011;42408;53.238;5.686;2023-04-16T07:26:08;40.67;;;17.47;;
56511;SDS011;42408;53.238;5.686;2023-04-16T07:28:34;36.60;;;18.17;;
56511;SDS011;42408;53.238;5.686;2023-04-16T07:31:00;33.30;;;16.33;;
56511;SDS011;42408;53.238;5.686;2023-04-16T07:33:25;36.73;;;16.70;;
56511;SDS011;42408;53.238;5.686;2023-04-16T07:35:51;32.63;;;16.97;;
56511;SDS011;42408;53.238;5.686;2023-04-16T07:38:17;36.33;;;17.43;;
56511;SDS011;42408;53.238;5.686;2023-04-16T07:40:42;34.53;;;17.70;;
56511;SDS011;42408;53.238;5.686;2023-04-16T07:43:08;46.10;;;21.07;;
56511;SDS011;42408;53.238;5.686;2023-04-16T07:45:34;40.15;;;18.50;;
56511;SDS011;42408;53.238;5.686;2023-04-16T07:48:00;38.67;;;17.63;;
56511;SDS011;42408;53.238;5.686;2023-04-16T07:50:26;35.47;;;17.57;;
56511;SDS011;42408;53.238;5.686;2023-04-16T07:52:52;40.17;;;19.92;;
56511;SDS011;42408;53.238;5.686;2023-04-16T07:55:17;37.73;;;18.07;;
56511;SDS011;42408;53.238;5.686;2023-04-16T07:57:43;30.43;;;17.73;;
56511;SDS011;42408;53.238;5.686;2023-04-16T08:00:09;41.23;;;15.80;;
56511;SDS011;42408;53.238;5.686;2023-04-16T08:02:35;32.50;;;16.23;;
56511;SDS011;42408;53.238;5.686;2023-04-16T08:05:01;38.20;;;17.63;;
56511;SDS011;42408;53.238;5.686;2023-04-16T08:07:27;31.13;;;16.83;;
56511;SDS011;42408;53.238;5.686;2023-04-16T08:09:53;30.03;;;17.10;;
56511;SDS011;42408;53.238;5.686;2023-04-16T08:12:19;36.10;;;16.50;;
56511;SDS011;42408;53.238;5.686;2023-04-16T08:14:45;38.10;;;16.63;;
56511;SDS011;42408;53.238;5.686;2023-04-16T08:17:11;34.97;;;18.02;;
56511;SDS011;42408;53.238;5.686;2023-04-16T08:19:37;35.13;;;17.23;;
56511;SDS011;42408;53.238;5.686;2023-04-16T08:22:03;33.37;;;16.97;;
56511;SDS011;42408;53.238;5.686;2023-04-16T08:24:29;39.53;;;17.57;;
56511;SDS011;42408;53.238;5.686;2023-04-16T08:26:55;41.33;;;17.43;;
56511;SDS011;42408;53.238;5.686;2023-04-16T08:29:20;57.93;;;18.40;;
56511;SDS011;42408;53.238;5.686;2023-04-16T08:31:49;40.92;;;18.33;;
56511;SDS011;42408;53.238;5.686;2023-04-16T08:34:14;41.50;;;16.77;;
56511;SDS011;42408;53.238;5.686;2023-04-16T08:36:40;37.85;;;16.88;;
56511;SDS011;42408;53.238;5.686;2023-04-16T08:39:06;42.17;;;19.77;;
56511;SDS011;42408;53.238;5.686;2023-04-16T08:41:33;35.47;;;16.30;;
56511;SDS011;42408;53.238;5.686;2023-04-16T08:44:02;41.88;;;18.05;;
56511;SDS011;42408;53.238;5.686;2023-04-16T08:46:36;30.80;;;15.23;;
56511;SDS011;42408;53.238;5.686;2023-04-16T08:49:06;35.88;;;18.02;;
56511;SDS011;42408;53.238;5.686;2023-04-16T08:51:33;33.10;;;15.27;;
56511;SDS011;42408;53.238;5.686;2023-04-16T08:54:03;38.35;;;16.38;;
56511;SDS011;42408;53.238;5.686;2023-04-16T08:56:32;31.25;;;15.68;;
56511;SDS011;42408;53.238;5.686;2023-04-16T08:59:00;32.00;;;16.25;;
56511;SDS011;42408;53.238;5.686;2023-04-16T09:01:29;34.15;;;16.63;;
56511;SDS011;42408;53.238;5.686;2023-04-16T09:03:56;37.25;;;17.98;;
56511;SDS011;42408;53.238;5.686;2023-04-16T09:06:26;36.45;;;18.52;;
56511;SDS011;42408;53.238;5.686;2023-04-16T09:11:18;41.92;;;18.02;;
56511;SDS011;42408;53.238;5.686;2023-04-16T09:13:44;32.83;;;17.77;;
56511;SDS011;42408;53.238;5.686;2023-04-16T09:16:11;40.35;;;19.20;;
56511;SDS011;42408;53.238;5.686;2023-04-16T09:21:03;36.97;;;17.67;;
56511;SDS011;42408;53.238;5.686;2023-04-16T09:23:29;41.27;;;17.17;;
56511;SDS011;42408;53.238;5.686;2023-04-16T09:25:56;29.90;;;15.33;;
56511;SDS011;42408;53.238;5.686;2023-04-16T09:28:39;32.92;;;16.77;;
56511;SDS011;42408;53.238;5.686;2023-04-16T09:31:06;36.70;;;17.27;;
56511;SDS011;42408;53.238;5.686;2023-04-16T09:33:35;33.17;;;16.73;;
56511;SDS011;42408;53.238;5.686;2023-04-16T09:36:01;35.63;;;17.70;;
56511;SDS011;42408;53.238;5.686;2023-04-16T09:38:40;31.50;;;15.32;;
56511;SDS011;42408;53.238;5.686;2023-04-16T09:41:11;29.40;;;18.10;;
56511;SDS011;42408;53.238;5.686;2023-04-16T09:43:37;26.43;;;17.40;;
56511;SDS011;42408;53.238;5.686;2023-04-16T09:46:03;31.58;;;17.33;;
56511;SDS011;42408;53.238;5.686;2023-04-16T09:48:29;28.73;;;16.40;;
56511;SDS011;42408;53.238;5.686;2023-04-16T09:50:57;31.02;;;16.90;;
56511;SDS011;42408;53.238;5.686;2023-04-16T09:53:24;29.08;;;15.63;;
56511;SDS011;42408;53.238;5.686;2023-04-16T09:55:57;25.85;;;16.25;;
56511;SDS011;42408;53.238;5.686;2023-04-16T09:58:24;29.00;;;15.40;;
56511;SDS011;42408;53.238;5.686;2023-04-16T10:01:00;25.95;;;16.33;;
56511;SDS011;42408;53.238;5.686;2023-04-16T10:03:33;23.48;;;16.88;;
56511;SDS011;42408;53.238;5.686;2023-04-16T10:06:02;30.35;;;16.65;;
56511;SDS011;42408;53.238;5.686;2023-04-16T10:08:52;29.17;;;17.42;;
56511;SDS011;42408;53.238;5.686;2023-04-16T10:11:21;28.75;;;16.55;;
56511;SDS011;42408;53.238;5.686;2023-04-16T10:13:47;33.33;;;18.60;;
56511;SDS011;42408;53.238;5.686;2023-04-16T10:16:12;28.77;;;18.93;;
56511;SDS011;42408;53.238;5.686;2023-04-16T10:18:39;30.93;;;18.73;;
56511;SDS011;42408;53.238;5.686;2023-04-16T10:21:06;30.95;;;17.70;;
56511;SDS011;42408;53.238;5.686;2023-04-16T10:25:58;32.60;;;15.93;;
56511;SDS011;42408;53.238;5.686;2023-04-16T10:30:53;26.95;;;16.13;;
56511;SDS011;42408;53.238;5.686;2023-04-16T10:33:21;31.83;;;16.95;;
56511;SDS011;42408;53.238;5.686;2023-04-16T10:35:51;27.02;;;15.63;;
56511;SDS011;42408;53.238;5.686;2023-04-16T10:40:47;30.98;;;17.10;;
56511;SDS011;42408;53.238;5.686;2023-04-16T10:43:16;29.47;;;18.13;;
56511;SDS011;42408;53.238;5.686;2023-04-16T10:45:43;24.75;;;16.60;;
56511;SDS011;42408;53.238;5.686;2023-04-16T10:48:09;31.10;;;17.70;;
56511;SDS011;42408;53.238;5.686;2023-04-16T10:50:35;32.53;;;18.02;;
56511;SDS011;42408;53.238;5.686;2023-04-16T10:53:21;30.13;;;18.80;;
56511;SDS011;42408;53.238;5.686;2023-04-16T10:55:55;36.70;;;19.83;;
56511;SDS011;42408;53.238;5.686;2023-04-16T10:58:28;43.85;;;20.63;;
56511;SDS011;42408;53.238;5.686;2023-04-16T11:01:00;37.30;;;20.35;;
56511;SDS011;42408;53.238;5.686;2023-04-16T11:03:30;30.42;;;18.23;;
56511;SDS011;42408;53.238;5.686;2023-04-16T11:06:12;32.27;;;19.53;;
56511;SDS011;42408;53.238;5.686;2023-04-16T11:08:39;32.25;;;19.75;;
56511;SDS011;42408;53.238;5.686;2023-04-16T11:13:31;29.05;;;18.38;;
56511;SDS011;42408;53.238;5.686;2023-04-16T11:15:56;31.53;;;20.43;;
56511;SDS011;42408;53.238;5.686;2023-04-16T11:18:23;31.55;;;18.55;;
56511;SDS011;42408;53.238;5.686;2023-04-16T11:20:50;30.70;;;18.83;;
56511;SDS011;42408;53.238;5.686;2023-04-16T11:23:16;30.60;;;17.13;;
56511;SDS011;42408;53.238;5.686;2023-04-16T11:25:41;30.53;;;17.97;;
56511;SDS011;42408;53.238;5.686;2023-04-16T11:28:07;33.60;;;19.60;;
56511;SDS011;42408;53.238;5.686;2023-04-16T11:30:33;28.70;;;18.63;;
56511;SDS011;42408;53.238;5.686;2023-04-16T11:33:04;28.45;;;17.58;;
56511;SDS011;42408;53.238;5.686;2023-04-16T11:35:31;29.58;;;17.80;;
56511;SDS011;42408;53.238;5.686;2023-04-16T11:37:57;32.00;;;18.87;;
56511;SDS011;42408;53.238;5.686;2023-04-16T11:40:23;26.50;;;18.30;;
56511;SDS011;42408;53.238;5.686;2023-04-16T11:45:15;30.00;;;19.55;;
56511;SDS011;42408;53.238;5.686;2023-04-16T11:47:44;35.38;;;20.33;;
56511;SDS011;42408;53.238;5.686;2023-04-16T11:50:21;33.95;;;19.85;;
56511;SDS011;42408;53.238;5.686;2023-04-16T11:52:49;34.00;;;20.58;;
56511;SDS011;42408;53.238;5.686;2023-04-16T11:55:16;32.28;;;20.25;;
56511;SDS011;42408;53.238;5.686;2023-04-16T11:57:42;33.95;;;20.80;;
56511;SDS011;42408;53.238;5.686;2023-04-16T12:00:08;34.87;;;20.93;;
56511;SDS011;42408;53.238;5.686;2023-04-16T12:02:41;40.80;;;23.90;;
56511;SDS011;42408;53.238;5.686;2023-04-16T12:05:30;33.30;;;18.83;;
56511;SDS011;42408;53.238;5.686;2023-04-16T12:08:04;28.25;;;19.17;;
56511;SDS011;42408;53.238;5.686;2023-04-16T12:10:51;34.70;;;20.08;;
56511;SDS011;42408;53.238;5.686;2023-04-16T12:13:18;30.83;;;19.77;;
56511;SDS011;42408;53.238;5.686;2023-04-16T12:15:53;27.10;;;18.50;;
56511;SDS011;42408;53.238;5.686;2023-04-16T12:18:20;30.60;;;18.33;;
56511;SDS011;42408;53.238;5.686;2023-04-16T12:20:48;28.63;;;17.58;;
56511;SDS011;42408;53.238;5.686;2023-04-16T12:25:52;27.15;;;18.20;;
56511;SDS011;42408;53.238;5.686;2023-04-16T12:28:28;29.88;;;18.33;;
56511;SDS011;42408;53.238;5.686;2023-04-16T12:30:58;31.75;;;18.77;;
56511;SDS011;42408;53.238;5.686;2023-04-16T12:33:24;27.23;;;18.38;;
56511;SDS011;42408;53.238;5.686;2023-04-16T12:35:50;24.87;;;18.57;;
56511;SDS011;42408;53.238;5.686;2023-04-16T12:38:16;32.20;;;18.77;;
56511;SDS011;42408;53.238;5.686;2023-04-16T12:40:42;30.77;;;18.73;;
56511;SDS011;42408;53.238;5.686;2023-04-16T12:43:09;32.75;;;20.13;;
56511;SDS011;42408;53.238;5.686;2023-04-16T12:45:35;31.30;;;20.40;;
56511;SDS011;42408;53.238;5.686;2023-04-16T12:48:01;28.08;;;20.38;;
56511;SDS011;42408;53.238;5.686;2023-04-16T12:50:27;30.13;;;20.17;;
56511;SDS011;42408;53.238;5.686;2023-04-16T12:52:54;33.13;;;19.88;;
56511;SDS011;42408;53.238;5.686;2023-04-16T12:55:19;29.85;;;19.15;;
56511;SDS011;42408;53.238;5.686;2023-04-16T12:57:45;29.87;;;20.60;;
56511;SDS011;42408;53.238;5.686;2023-04-16T13:00:13;34.47;;;20.52;;
56511;SDS011;42408;53.238;5.686;2023-04-16T13:02:39;34.80;;;20.75;;
56511;SDS011;42408;53.238;5.686;2023-04-16T13:05:05;31.80;;;19.50;;
56511;SDS011;42408;53.238;5.686;2023-04-16T13:09:58;27.45;;;19.05;;
56511;SDS011;42408;53.238;5.686;2023-04-16T13:12:24;31.05;;;19.92;;
56511;SDS011;42408;53.238;5.686;2023-04-16T13:14:51;33.75;;;20.85;;
56511;SDS011;42408;53.238;5.686;2023-04-16T13:17:17;30.00;;;19.63;;
56511;SDS011;42408;53.238;5.686;2023-04-16T13:19:42;36.27;;;20.17;;
56511;SDS011;42408;53.238;5.686;2023-04-16T13:22:08;34.23;;;20.03;;
56511;SDS011;42408;53.238;5.686;2023-04-16T13:24:34;28.37;;;18.33;;
56511;SDS011;42408;53.238;5.686;2023-04-16T13:26:59;30.97;;;19.23;;
56511;SDS011;42408;53.238;5.686;2023-04-16T13:29:25;31.07;;;19.07;;
56511;SDS011;42408;53.238;5.686;2023-04-16T13:31:51;27.97;;;18.43;;
56511;SDS011;42408;53.238;5.686;2023-04-16T13:34:16;27.37;;;18.20;;
56511;SDS011;42408;53.238;5.686;2023-04-16T13:36:42;27.23;;;18.73;;
56511;SDS011;42408;53.238;5.686;2023-04-16T13:39:08;30.43;;;20.40;;
56511;SDS011;42408;53.238;5.686;2023-04-16T13:41:38;27.85;;;19.55;;
56511;SDS011;42408;53.238;5.686;2023-04-16T13:44:04;29.90;;;19.10;;
56511;SDS011;42408;53.238;5.686;2023-04-16T13:46:30;34.05;;;20.25;;
56511;SDS011;42408;53.238;5.686;2023-04-16T13:48:56;32.33;;;19.20;;
56511;SDS011;42408;53.238;5.686;2023-04-16T13:51:22;30.80;;;18.80;;
56511;SDS011;42408;53.238;5.686;2023-04-16T13:53:47;33.53;;;21.30;;
56511;SDS011;42408;53.238;5.686;2023-04-16T13:56:13;26.03;;;18.73;;
56511;SDS011;42408;53.238;5.686;2023-04-16T13:58:39;27.70;;;18.77;;
56511;SDS011;42408;53.238;5.686;2023-04-16T14:01:05;33.60;;;20.77;;
56511;SDS011;42408;53.238;5.686;2023-04-16T14:03:31;31.27;;;20.33;;
56511;SDS011;42408;53.238;5.686;2023-04-16T14:06:00;31.50;;;20.17;;
56511;SDS011;42408;53.238;5.686;2023-04-16T14:08:26;29.63;;;20.58;;
56511;SDS011;42408;53.238;5.686;2023-04-16T14:10:52;31.87;;;21.53;;
56511;SDS011;42408;53.238;5.686;2023-04-16T14:13:17;36.40;;;21.20;;
56511;SDS011;42408;53.238;5.686;2023-04-16T14:15:43;31.27;;;21.30;;
56511;SDS011;42408;53.238;5.686;2023-04-16T14:18:09;35.17;;;20.03;;
56511;SDS011;42408;53.238;5.686;2023-04-16T14:20:34;35.33;;;21.33;;
56511;SDS011;42408;53.238;5.686;2023-04-16T14:23:00;30.43;;;20.20;;
56511;SDS011;42408;53.238;5.686;2023-04-16T14:25:26;32.10;;;19.93;;
56511;SDS011;42408;53.238;5.686;2023-04-16T14:27:52;35.67;;;21.83;;
56511;SDS011;42408;53.238;5.686;2023-04-16T14:30:17;36.13;;;20.00;;
56511;SDS011;42408;53.238;5.686;2023-04-16T14:32:43;29.93;;;20.37;;
56511;SDS011;42408;53.238;5.686;2023-04-16T14:35:09;31.55;;;20.35;;
56511;SDS011;42408;53.238;5.686;2023-04-16T14:37:35;35.00;;;21.13;;
56511;SDS011;42408;53.238;5.686;2023-04-16T14:40:01;30.47;;;20.60;;
56511;SDS011;42408;53.238;5.686;2023-04-16T14:42:32;35.65;;;21.50;;
56511;SDS011;42408;53.238;5.686;2023-04-16T14:44:57;29.87;;;20.37;;
56511;SDS011;42408;53.238;5.686;2023-04-16T14:47:24;34.15;;;20.63;;
56511;SDS011;42408;53.238;5.686;2023-04-16T14:49:49;30.60;;;20.60;;
56511;SDS011;42408;53.238;5.686;2023-04-16T14:52:15;29.50;;;20.23;;